• Join FlightAware (Why Join?)
  • Login
  • US Flag 
01:36AM EST


 

Airport Tracker/Info


-or-


 

Live Flight TrackerFlight Track Log ✈ UAL4678 ✈ 04-Aug-2013 ✈ KEWR - KMSP

Flight Track Log - Related Links

Times and Time Zones

All times are in EDT time to prevent confusion due to time zone crossing. See the UAL4678 flight status page for this flight to view local times or setup timezone preferences in your user account.

Time Position Orientation Groundspeed Altitude Reporting Facility
EDT Latitude Longitude Course Direction KTS MPH feet Rate Location/Type
05:42PM 40.7333 -74.1167 351° North 195 224 2,300  Level New York TRACON
05:43PM 40.7833 -74.1333 346° North 225 259 4,200 2,100 Climbing New York TRACON
05:44PM 40.9583 -74.2352 350° North  Level FlightAware Approximate
05:44PM 40.8167 -74.2167 298° West 251 289 6,600  Level New York TRACON
05:45PM 41.0515 -74.2559 350° North  Level FlightAware Approximate
05:45PM 40.8500 -74.3000 298° West 251 289 8,000  Level New York TRACON
05:46PM 41.1440 -74.2813 346° North  Level FlightAware Approximate
05:46PM 40.8667 -74.3833 285° West 251 289 8,100  Level New York TRACON
05:47PM 41.2357 -74.3119 346° North  Level FlightAware Approximate
05:47PM 40.8833 -74.4500 288° West 259 298 9,400  Level New York TRACON
05:48PM 41.3292 -74.3258 351° North  Level FlightAware Approximate
05:48PM 40.9667 -74.4667 351° North 265 305 11,500  Level New York TRACON
05:49PM 41.0333 -74.4500 11° North 292 336 12,800 1,320 Climbing New York TRACON
05:50PM 41.1167 -74.4167 17° North 321 369 14,200 1,440 Climbing New York TRACON
05:51PM 41.2167 -74.4000 North 342 394 15,700 900 Climbing New York TRACON
05:52PM 41.3167 -74.3833 North 360 414 16,100 120 Climbing New York TRACON
05:54PM 41.4400 -74.4350 343° North 348 400 16,100 300 Level New York Center
05:55PM 41.4883 -74.5511 299° West 331 381 16,900 1,140 Climbing New York Center
05:56PM 41.5347 -74.6675 298° West 349 402 18,400 1,020 Climbing New York Center
05:57PM 41.5700 -74.7914 291° West 360 414 19,000 240 Climbing New York Center
05:58PM 41.6072 -74.9186 291° West 365 420 19,000 420 Level New York Center
05:59PM 41.6408 -75.0317 292° West 365 420 19,900 1,140 Climbing New York Center
06:00PM 41.6758 -75.1533 291° West 360 414 21,300 1,440 Climbing New York Center
06:01PM 41.7108 -75.2750 291° West 355 409 22,800 1,620 Climbing New York Center
06:02PM 41.7458 -75.3942 292° West 355 409 24,600 1,860 Climbing New York Center
06:03PM 41.7769 -75.5047 291° West 344 396 26,700 2,100 Climbing New York Center
06:04PM 41.8061 -75.6100 290° West 323 372 28,800 1,560 Climbing New York Center
06:05PM 41.8353 -75.7094 292° West 299 344 29,900 1,020 Climbing New York Center
06:06PM 41.8642 -75.8147 290° West 294 338 30,900 1,080 Climbing New York Center
06:07PM 41.8989 -75.9286 292° West 301 346 32,100 1,080 Climbing New York Center
06:08PM 41.9272 -76.0369 289° West 301 346 33,100 960 Climbing New York Center
06:09PM 41.9558 -76.1422 290° West 301 346 34,100 960 Climbing New York Center
06:10PM 41.9867 -76.2481 291° West 301 346 35,000 900 Climbing New York Center
06:11PM 42.0172 -76.3511 292° West 301 346 35,900 480 Climbing New York Center
06:12PM 42.0400 -76.4422 289° West 295 339 36,000 360 Climbing New York Center
06:13PM 46.9667 -77.0667 355° North 510 587 37,000 360 Climbing Toronto Center
06:14PM 46.8333 -76.9833 157° South 520 598 37,000  Level Toronto Center
06:15PM 46.7167 -76.8667 146° Southeast 510 587 37,000  Level Toronto Center
06:16PM 46.6000 -76.7667 149° Southeast 520 598 37,000  Level Toronto Center
06:17PM 46.4667 -76.6500 149° Southeast 520 598 37,000  Level Toronto Center
06:18PM 46.3333 -76.5667 157° South 510 587 37,000  Level Toronto Center
06:19PM 46.2167 -76.4500 145° Southeast 510 587 37,000  Level Toronto Center
06:20PM 46.0833 -76.3333 149° Southeast 520 598 37,000  Level Toronto Center
06:21PM 45.9667 -76.2500 154° Southeast 520 598 37,000  Level Toronto Center
06:22PM 45.8500 -76.1333 145° Southeast 510 587 37,000  Level Toronto Center
06:23PM 45.7333 -76.0500 153° Southeast 510 587 37,000  Level Toronto Center
06:24PM 45.5833 -75.9333 151° Southeast 510 587 37,000  Level Toronto Center
06:25PM 45.4667 -75.8333 149° Southeast 510 587 37,000  Level Toronto Center
06:26PM 45.3500 -75.7333 149° Southeast 520 598 37,000  Level Toronto Center
06:27PM 45.2333 -75.6500 153° Southeast 510 587 37,000  Level Toronto Center
06:28PM 45.0833 -75.5500 155° Southeast 510 587 37,000  Level Toronto Center
06:29PM 44.9667 -75.4333 145° Southeast 520 598 37,000  Level Toronto Center
06:30PM 44.8500 -75.3500 153° Southeast 520 598 37,000  Level Toronto Center
06:31PM 44.7333 -75.2667 153° Southeast 510 587 37,000 -420 Level Toronto Center
06:33PM 42.7603 -79.2006 237° Southwest 373 429 36,000 -420 Descending Cleveland Center
06:34PM 42.7931 -79.3328 289° West 378 435 36,000  Level Cleveland Center
06:35PM 42.8236 -79.4567 289° West 378 435 36,000  Level Cleveland Center
06:36PM 42.8667 -79.6500 287° West 370 426 36,000  Level Toronto Center
06:37PM 42.9000 -79.8000 287° West 360 414 36,000  Level Toronto Center
06:38PM 42.9167 -79.9000 283° West 350 403 36,000  Level Toronto Center
06:39PM 42.9500 -80.0167 291° West 350 403 36,000  Level Toronto Center
06:40PM 42.9833 -80.1500 289° West 350 403 36,000  Level Toronto Center
06:41PM 43.0167 -80.2667 291° West 350 403 36,000  Level Toronto Center
06:42PM 43.0500 -80.4167 287° West 350 403 36,000  Level Toronto Center
06:43PM 43.0833 -80.5500 289° West 350 403 36,000  Level Toronto Center
06:44PM 43.1000 -80.6667 281° West 350 403 36,000  Level Toronto Center
06:45PM 43.1333 -80.8000 289° West 350 403 36,000  Level Toronto Center
06:46PM 43.1500 -80.9167 281° West 350 403 36,000  Level Toronto Center
06:47PM 43.1833 -81.0500 289° West 350 403 36,000  Level Toronto Center
06:48PM 43.2167 -81.1667 291° West 350 403 36,000  Level Toronto Center
06:49PM 43.2333 -81.3000 280° West 350 403 36,000  Level Toronto Center
06:50PM 43.2667 -81.4167 291° West 350 403 36,000  Level Toronto Center
06:51PM 43.3000 -81.5500 289° West 350 403 36,000  Level Toronto Center
06:52PM 43.3333 -81.6667 291° West 350 403 36,000  Level Toronto Center
06:53PM 43.3667 -81.8167 287° West 350 403 36,000  Level Toronto Center
06:54PM 43.3667 -81.9333 270° West 350 403 36,000  Level Toronto Center
06:55PM 43.4000 -82.0667 289° West 350 403 36,000  Level Toronto Center
06:56PM 43.4333 -82.2000 289° West 350 403 36,000  Level Toronto Center
06:57PM 43.4667 -82.3167 292° West 350 403 36,000  Level Toronto Center
06:58PM 43.5000 -82.4667 287° West 340 391 36,000  Level Toronto Center
06:59PM 43.5167 -82.5833 281° West 340 391 36,000  Level Toronto Center
07:00PM 43.5333 -82.7000 281° West 340 391 36,000  Level Toronto Center
07:01PM 43.5667 -82.8333 289° West 340 391 36,000  Level Toronto Center
07:02PM 43.6000 -82.9500 292° West 350 403 36,000  Level Toronto Center
07:03PM 43.6336 -83.0833 289° West 352 405 36,000  Level Minneapolis Center
07:04PM 43.6542 -83.1856 286° West 349 402 36,000  Level Minneapolis Center
07:05PM 43.6867 -83.3425 286° West 354 407 36,000  Level Minneapolis Center
07:06PM 43.7125 -83.4717 286° West 353 406 36,000  Level Minneapolis Center
07:07PM 43.7375 -83.6019 285° West 353 406 36,000  Level Minneapolis Center
07:08PM 43.7686 -83.7583 285° West 353 406 36,000  Level Minneapolis Center
07:09PM 43.7956 -83.8889 286° West 354 407 36,000  Level Minneapolis Center
07:11PM 43.8217 -84.0206 285° West 356 410 36,000  Level Minneapolis Center
07:12PM 43.8475 -84.1533 285° West 358 412 36,000  Level Minneapolis Center
07:13PM 43.8728 -84.2844 285° West 357 411 36,000  Level Minneapolis Center
07:14PM 43.9036 -84.4439 285° West 357 411 36,000  Level Minneapolis Center
07:15PM 43.9297 -84.5764 285° West 358 412 36,000  Level Minneapolis Center
07:16PM 43.9558 -84.7092 285° West 359 413 36,000  Level Minneapolis Center
07:17PM 43.9806 -84.8433 284° West 360 414 36,000  Level Minneapolis Center
07:18PM 44.0047 -84.9761 284° West 359 413 36,000  Level Minneapolis Center
07:19PM 44.0356 -85.1350 285° West 358 412 36,000  Level Minneapolis Center
07:20PM 44.0514 -85.2236 284° West 358 412 36,000  Level Minneapolis Center
07:21PM 44.0861 -85.4117 284° West 359 413 36,000  Level Minneapolis Center
07:22PM 44.1153 -85.5725 284° West 358 412 36,000  Level Minneapolis Center
07:23PM 44.1361 -85.7100 282° West 361 415 36,000  Level Minneapolis Center
07:24PM 44.1533 -85.8194 282° West 361 415 36,000  Level Minneapolis Center
07:25PM 44.1756 -85.9569 283° West 362 417 36,000  Level Minneapolis Center
07:26PM 44.2011 -86.1211 282° West 361 415 36,000  Level Minneapolis Center
07:27PM 44.2261 -86.2861 282° West 361 415 36,000  Level Minneapolis Center
07:28PM 44.2475 -86.4231 282° West 360 414 36,000  Level Minneapolis Center
07:29PM 44.2675 -86.5606 282° West 362 417 36,000  Level Minneapolis Center
07:30PM 44.2892 -86.6981 282° West 361 415 36,000  Level Minneapolis Center
07:31PM 44.3097 -86.8353 282° West 361 415 36,000  Level Minneapolis Center
07:32PM 44.3292 -86.9728 281° West 360 414 36,000  Level Minneapolis Center
07:34PM 44.3539 -87.1383 282° West 361 415 36,000  Level Minneapolis Center
07:35PM 44.3733 -87.2714 282° West 361 415 36,000  Level Minneapolis Center
07:36PM 44.3933 -87.4103 281° West 363 418 36,000  Level Minneapolis Center
07:37PM 44.4133 -87.5469 282° West 361 415 36,000  Level Minneapolis Center
07:38PM 44.4356 -87.7069 281° West 361 415 36,000  Level Minneapolis Center
07:39PM 44.4556 -87.8428 282° West 359 413 36,000  Level Minneapolis Center
07:40PM 44.4742 -87.9808 281° West 360 414 36,000  Level Minneapolis Center
07:41PM 44.4911 -88.1164 280° West 354 407 36,000  Level Minneapolis Center
07:42PM 44.5117 -88.2553 282° West 361 415 36,000  Level Minneapolis Center
07:43PM 44.5325 -88.4164 280° West 362 417 36,000  Level Minneapolis Center
07:44PM 44.5517 -88.5539 281° West 361 415 36,000  Level Minneapolis Center
07:45PM 44.5667 -88.6675 281° West 358 412 36,000  Level Minneapolis Center
07:46PM 44.5867 -88.8256 280° West 355 409 36,000  Level Minneapolis Center
07:47PM 44.6042 -88.9611 280° West 354 407 36,000  Level Minneapolis Center
07:48PM 44.6236 -89.1183 280° West 352 405 36,000  Level Minneapolis Center
07:49PM 44.6411 -89.2528 280° West 351 404 36,000  Level Minneapolis Center
07:50PM 44.6578 -89.3867 280° West 350 403 36,000 -540 Level Minneapolis Center
07:51PM 44.6736 -89.5236 279° West 354 407 35,000 -1,260 Descending Minneapolis Center
07:52PM 44.6914 -89.6628 280° West 361 415 33,200 -900 Descending Minneapolis Center
07:53PM 44.7133 -89.8508 279° West 366 421 33,000 -120 Descending Minneapolis Center
07:54PM 44.7091 -89.8175 279° West  Level FlightAware Approximate
07:54PM 44.7311 -89.9922 280° West 367 422 33,000  Level Minneapolis Center
07:56PM 44.7472 -90.1347 279° West 368 423 33,000  Level Minneapolis Center
07:57PM 44.7697 -90.3256 279° West 372 428 33,000  Level Minneapolis Center
07:58PM 44.7864 -90.4689 279° West 374 430 33,000  Level Minneapolis Center
07:59PM 44.8047 -90.6075 281° West 371 427 33,000 -720 Level Minneapolis Center
08:00PM 44.8311 -90.7783 282° West 373 429 31,500 -1,740 Descending Minneapolis Center
08:01PM 44.8525 -90.9236 282° West 380 437 29,400 -2,100 Descending Minneapolis Center
08:02PM 44.8742 -91.0722 282° West 384 442 27,200 -2,100 Descending Minneapolis Center
08:03PM 44.8975 -91.2264 282° West 396 456 25,100 -2,040 Descending Minneapolis Center
08:04PM 44.9206 -91.3783 282° West 399 459 23,100 -1,980 Descending Minneapolis Center
08:05PM 44.9414 -91.5236 282° West 388 447 21,100 -2,160 Descending Minneapolis Center
08:06PM 44.9656 -91.6950 281° West 376 433 18,700 -2,100 Descending Minneapolis Center
08:07PM 44.9869 -91.8372 282° West 371 427 16,800 -1,920 Descending Minneapolis Center
08:08PM 45.0058 -91.9747 281° West 358 412 14,800 -1,980 Descending Minneapolis Center
08:09PM 45.0247 -92.1100 281° West 353 406 12,800 -1,800 Descending Minneapolis Center
08:10PM 45.0428 -92.2456 281° West 352 405 11,100 -900 Descending Minneapolis Center
08:11PM 45.0347 -92.3789 265° West 344 396 11,000 -60 Descending Minneapolis Center
08:12PM 45.0097 -92.5392 258° West 350 403 11,000  Level Minneapolis Center
08:13PM 44.9889 -92.6714 257° West 348 400 11,000 -120 Level Minneapolis Center
08:15PM 44.9500 -92.9167 257° West 331 381 10,700 -540 Descending Minneapolis TRACON
08:16PM 44.9333 -93.0333 259° West 273 314 9,600 -960 Descending Minneapolis TRACON
08:17PM 44.9272 -93.0586 251° West 271 312 9,100 -1,380 Descending Minneapolis Center
08:18PM 44.9783 -93.1764 302° West 254 292 7,300 -1,740 Descending Minneapolis Center
08:19PM 45.0156 -93.2575 303° West 249 287 5,600 -1,620 Descending Minneapolis Center
08:20PM 45.0217 -93.3411 276° West 244 281 4,000 -1,200 Descending Minneapolis Center
08:21PM 44.9633 -93.3508 187° South 212 244 3,200 -840 Descending Minneapolis Center
08:22PM 44.9294 -93.3031 135° Southeast 173 199 2,300 -960 Descending Minneapolis Center
08:23PM 44.9036 -93.2458 122° Southeast 146 168 1,300 -1,020 Descending Minneapolis Center